createdAt,value
2018-03-31T00:00:31.547Z,8.8
2018-03-31T00:01:32.311Z,8.6
2018-03-31T00:02:33.087Z,8.6
2018-03-31T00:03:33.905Z,8.5
2018-03-31T00:04:34.659Z,8.4
2018-03-31T00:05:35.387Z,8.5
2018-03-31T00:06:36.111Z,8.4
2018-03-31T00:07:36.833Z,8.3
2018-03-31T00:08:37.632Z,8.3
2018-03-31T00:09:38.371Z,8.3
2018-03-31T00:10:39.094Z,8.2
2018-03-31T00:11:39.826Z,8.2
2018-03-31T00:12:40.551Z,8.2
2018-03-31T00:13:41.336Z,8.1
2018-03-31T00:14:42.091Z,8.1
2018-03-31T00:15:42.884Z,7.9
2018-03-31T00:16:43.621Z,7.9
2018-03-31T00:17:44.409Z,7.9
2018-03-31T00:18:45.122Z,7.9
2018-03-31T00:19:47.014Z,7.9
2018-03-31T00:20:47.994Z,7.9
2018-03-31T00:21:48.714Z,7.8
2018-03-31T00:22:49.446Z,7.8
2018-03-31T00:23:50.174Z,7.8
2018-03-31T00:24:51.892Z,7.8
2018-03-31T00:25:52.908Z,7.7
2018-03-31T00:26:55.093Z,7.7
2018-03-31T00:27:56.052Z,7.7
2018-03-31T00:28:56.790Z,7.7
2018-03-31T00:29:58.668Z,7.6
2018-03-31T00:30:59.611Z,7.6
2018-03-31T00:32:00.334Z,7.6
2018-03-31T00:33:01.074Z,7.6
2018-03-31T00:34:01.795Z,7.4
2018-03-31T00:35:02.604Z,7.5
2018-03-31T00:36:03.275Z,7.5
2018-03-31T00:37:04.036Z,7.4
2018-03-31T00:38:04.776Z,7.5
2018-03-31T00:39:05.491Z,7.4
2018-03-31T00:40:06.212Z,7.5
2018-03-31T00:41:06.978Z,7.4
2018-03-31T00:42:07.818Z,7.4
2018-03-31T00:43:08.539Z,7.4
2018-03-31T00:44:09.330Z,7.4
2018-03-31T00:45:11.247Z,7.4
2018-03-31T00:46:12.165Z,7.3
2018-03-31T00:47:12.891Z,7.4
2018-03-31T00:48:13.667Z,7.3
2018-03-31T00:49:14.444Z,7.4
2018-03-31T00:50:15.213Z,7.2
2018-03-31T00:51:16.027Z,7.4
2018-03-31T00:52:16.855Z,7.3
2018-03-31T00:53:17.624Z,7.3
2018-03-31T00:54:18.351Z,7.4
2018-03-31T00:55:19.076Z,7.4
2018-03-31T00:56:19.887Z,7.4
2018-03-31T00:57:20.676Z,7.4
2018-03-31T00:58:21.406Z,7.5
2018-03-31T00:59:22.206Z,7.4
2018-03-31T01:00:22.937Z,7.5
2018-03-31T01:01:23.699Z,7.4
2018-03-31T01:02:24.428Z,7.4
2018-03-31T01:03:25.213Z,7.4
2018-03-31T01:04:25.947Z,7.4
2018-03-31T01:05:26.781Z,7.4
2018-03-31T01:06:27.571Z,7.4
2018-03-31T01:07:28.296Z,7.4
2018-03-31T01:08:29.012Z,7.3
2018-03-31T01:09:29.731Z,7.3
2018-03-31T01:10:30.504Z,7.3
2018-03-31T01:11:31.232Z,7.2
2018-03-31T01:12:32.014Z,7.3
2018-03-31T01:13:32.738Z,7.1
2018-03-31T01:14:33.508Z,7.2
2018-03-31T01:15:34.226Z,7.2
2018-03-31T01:16:34.941Z,7.2
2018-03-31T01:17:35.664Z,7.2
2018-03-31T01:18:36.395Z,7.2
2018-03-31T01:19:37.197Z,7.3
2018-03-31T01:20:37.939Z,7.2
2018-03-31T01:21:38.651Z,7.2
2018-03-31T01:22:39.387Z,7.3
2018-03-31T01:23:40.123Z,7.3
2018-03-31T01:24:40.904Z,7.3
2018-03-31T01:25:41.612Z,7.3
2018-03-31T01:26:42.322Z,7.3
2018-03-31T01:27:43.046Z,7.3
2018-03-31T01:28:43.789Z,7.3
2018-03-31T01:29:44.878Z,7.2
2018-03-31T01:30:45.696Z,7.3
2018-03-31T01:31:46.514Z,7.3
2018-03-31T01:32:47.331Z,7.2
2018-03-31T01:33:48.143Z,7.2
2018-03-31T01:34:48.933Z,7.2
2018-03-31T01:35:49.659Z,7.2
2018-03-31T01:36:50.364Z,7.2
2018-03-31T01:37:51.090Z,7.2
2018-03-31T01:38:51.860Z,7.2
2018-03-31T01:39:52.610Z,7.2
2018-03-31T01:40:53.378Z,7.3
2018-03-31T01:41:54.101Z,7.3
2018-03-31T01:42:54.840Z,7.2
2018-03-31T01:43:55.552Z,7.2
2018-03-31T01:44:56.287Z,7.3
2018-03-31T01:45:57.031Z,7.1
2018-03-31T01:46:57.758Z,7.2
2018-03-31T01:47:58.553Z,7.2
2018-03-31T01:48:59.358Z,7.2
2018-03-31T01:50:00.078Z,7.2
2018-03-31T01:51:00.880Z,7.3
2018-03-31T01:52:01.642Z,7.1
2018-03-31T01:53:02.381Z,7.0
2018-03-31T01:54:03.156Z,7.1
2018-03-31T01:55:03.880Z,7.0
2018-03-31T01:56:04.660Z,7.1
2018-03-31T01:57:05.382Z,7.1
2018-03-31T01:58:06.130Z,7.1
2018-03-31T01:59:06.899Z,7.0
2018-03-31T02:00:07.764Z,7.0
2018-03-31T02:01:08.482Z,7.1
2018-03-31T02:02:09.192Z,7.1
2018-03-31T02:03:09.930Z,7.0
2018-03-31T02:04:10.703Z,7.1
2018-03-31T02:05:11.438Z,7.1
2018-03-31T02:06:12.230Z,7.0
2018-03-31T02:07:13.013Z,7.1
2018-03-31T02:08:13.756Z,7.1
2018-03-31T02:09:14.489Z,7.0
2018-03-31T02:10:15.214Z,7.0
2018-03-31T02:11:15.948Z,7.0
2018-03-31T02:12:16.709Z,7.1
2018-03-31T02:13:17.443Z,7.0
2018-03-31T02:14:18.212Z,7.0
2018-03-31T02:15:18.946Z,7.0
2018-03-31T02:16:19.677Z,7.0
2018-03-31T02:17:20.429Z,7.0
2018-03-31T02:18:21.260Z,7.0
2018-03-31T02:19:21.951Z,7.0
2018-03-31T02:20:22.675Z,7.0
2018-03-31T02:21:23.464Z,6.9
2018-03-31T02:22:24.200Z,6.9
2018-03-31T02:23:24.992Z,7.0
2018-03-31T02:24:25.717Z,7.0
2018-03-31T02:25:26.467Z,7.0
2018-03-31T02:26:27.482Z,6.9
2018-03-31T02:27:28.221Z,6.9
2018-03-31T02:28:28.951Z,6.8
2018-03-31T02:29:29.686Z,6.7
2018-03-31T02:30:30.413Z,6.8
2018-03-31T02:31:31.840Z,6.8
2018-03-31T02:32:32.575Z,6.7
2018-03-31T02:33:33.298Z,6.8
2018-03-31T02:34:34.148Z,6.7
2018-03-31T02:35:34.943Z,6.8
2018-03-31T02:36:35.728Z,6.8
2018-03-31T02:37:36.452Z,6.8
2018-03-31T02:38:37.186Z,6.8
2018-03-31T02:39:37.993Z,6.9
2018-03-31T02:40:38.720Z,6.8
2018-03-31T02:41:39.461Z,6.9
2018-03-31T02:42:40.609Z,6.9
2018-03-31T02:43:41.332Z,6.9
2018-03-31T02:44:42.151Z,6.9
2018-03-31T02:45:42.943Z,6.8
2018-03-31T02:46:43.728Z,6.8
2018-03-31T02:47:44.536Z,6.8
2018-03-31T02:48:45.276Z,6.8
2018-03-31T02:49:46.026Z,6.8
2018-03-31T02:50:46.826Z,6.8
2018-03-31T02:51:47.630Z,6.9
2018-03-31T02:52:48.402Z,6.8
2018-03-31T02:53:49.139Z,6.8
2018-03-31T02:54:49.934Z,6.9
2018-03-31T02:55:50.673Z,6.8
2018-03-31T02:56:51.411Z,6.9
2018-03-31T02:57:52.147Z,6.8
2018-03-31T02:58:52.933Z,6.8
2018-03-31T02:59:53.687Z,6.8
2018-03-31T03:00:54.419Z,6.8
2018-03-31T03:01:55.161Z,6.8
2018-03-31T03:02:55.891Z,6.8
2018-03-31T03:03:56.684Z,6.9
2018-03-31T03:04:57.469Z,6.8
2018-03-31T03:05:58.208Z,6.7
2018-03-31T03:06:58.968Z,6.7
2018-03-31T03:07:59.759Z,6.8
2018-03-31T03:09:00.534Z,6.8
2018-03-31T03:10:01.287Z,6.9
2018-03-31T03:11:02.009Z,6.7
2018-03-31T03:12:02.732Z,6.7
2018-03-31T03:13:03.521Z,6.8
2018-03-31T03:14:04.244Z,6.7
2018-03-31T03:15:04.987Z,6.7
2018-03-31T03:16:05.711Z,6.7
2018-03-31T03:17:06.502Z,6.7
2018-03-31T03:18:07.243Z,6.8
2018-03-31T03:19:08.058Z,6.7
2018-03-31T03:20:08.853Z,6.7
2018-03-31T03:21:09.588Z,6.6
2018-03-31T03:22:10.317Z,6.7
2018-03-31T03:23:11.058Z,6.6
2018-03-31T03:24:11.854Z,6.7
2018-03-31T03:25:12.599Z,6.6
2018-03-31T03:26:13.395Z,6.6
2018-03-31T03:27:14.128Z,6.7
2018-03-31T03:28:14.856Z,6.7
2018-03-31T03:29:15.673Z,6.6
2018-03-31T03:30:16.433Z,6.6
2018-03-31T03:31:17.174Z,6.5
2018-03-31T03:32:17.966Z,6.5
2018-03-31T03:33:18.700Z,6.5
2018-03-31T03:34:19.488Z,6.6
2018-03-31T03:35:20.219Z,6.6
2018-03-31T03:36:20.935Z,6.6
2018-03-31T03:37:21.667Z,6.5
2018-03-31T03:38:22.385Z,6.6
2018-03-31T03:39:23.102Z,6.6
2018-03-31T03:40:23.838Z,6.6
2018-03-31T03:41:24.578Z,6.5
2018-03-31T03:42:25.302Z,6.6
2018-03-31T03:43:26.031Z,6.4
2018-03-31T03:44:26.759Z,6.4
2018-03-31T03:45:27.557Z,6.3
2018-03-31T03:46:28.298Z,6.4
2018-03-31T03:47:29.083Z,6.3
2018-03-31T03:48:29.805Z,6.4
2018-03-31T03:49:30.535Z,6.4
2018-03-31T03:50:31.246Z,6.3
2018-03-31T03:51:32.024Z,6.3
2018-03-31T03:52:32.796Z,6.4
2018-03-31T03:53:33.527Z,6.3
2018-03-31T03:54:34.251Z,6.3
2018-03-31T03:55:35.002Z,6.3
2018-03-31T03:56:35.835Z,6.3
2018-03-31T03:57:36.623Z,6.3
2018-03-31T03:58:37.354Z,6.4
2018-03-31T03:59:38.152Z,6.4
2018-03-31T04:00:38.881Z,6.5
2018-03-31T04:01:39.602Z,6.5
2018-03-31T04:02:40.400Z,6.5
2018-03-31T04:03:41.140Z,6.5
2018-03-31T04:04:41.916Z,6.5
2018-03-31T04:05:42.648Z,6.5
2018-03-31T04:06:43.422Z,6.5
2018-03-31T04:07:44.201Z,6.4
2018-03-31T04:08:44.945Z,6.5
2018-03-31T04:09:45.656Z,6.5
2018-03-31T04:10:46.442Z,6.5
2018-03-31T04:11:47.175Z,6.6
2018-03-31T04:12:47.908Z,6.5
2018-03-31T04:13:48.748Z,6.5
2018-03-31T04:14:49.573Z,6.5
2018-03-31T04:15:50.306Z,6.5
2018-03-31T04:16:51.047Z,6.5
2018-03-31T04:17:51.781Z,6.6
2018-03-31T04:18:52.576Z,6.5
2018-03-31T04:19:53.306Z,6.5
2018-03-31T04:20:54.095Z,6.6
2018-03-31T04:21:54.886Z,6.5
2018-03-31T04:22:55.613Z,6.5
2018-03-31T04:23:56.394Z,6.6
2018-03-31T04:24:57.102Z,6.6
2018-03-31T04:25:58.194Z,6.6
2018-03-31T04:26:58.927Z,6.6
2018-03-31T04:27:59.739Z,6.5
2018-03-31T04:29:00.526Z,6.6
2018-03-31T04:30:01.336Z,6.5
2018-03-31T04:31:02.080Z,6.5
2018-03-31T04:32:02.853Z,6.6
2018-03-31T04:33:03.691Z,6.4
2018-03-31T04:34:04.403Z,6.6
2018-03-31T04:35:05.202Z,6.5
2018-03-31T04:36:05.941Z,6.5
2018-03-31T04:37:06.667Z,6.5
2018-03-31T04:38:07.456Z,6.5
2018-03-31T04:39:08.249Z,6.5
2018-03-31T04:40:09.091Z,6.5
2018-03-31T04:41:09.831Z,6.5
2018-03-31T04:42:10.557Z,6.5
2018-03-31T04:43:11.572Z,6.5
2018-03-31T04:44:12.303Z,6.6
2018-03-31T04:45:13.028Z,6.6
2018-03-31T04:46:13.741Z,6.6
2018-03-31T04:47:14.476Z,6.5
2018-03-31T04:48:15.204Z,6.5
2018-03-31T04:49:15.940Z,6.5
2018-03-31T04:50:16.658Z,6.6
2018-03-31T04:51:17.437Z,6.7
2018-03-31T04:52:18.173Z,6.7
2018-03-31T04:53:18.900Z,6.6
2018-03-31T04:54:19.631Z,6.6
2018-03-31T04:55:20.355Z,6.6
2018-03-31T04:56:21.092Z,6.7
2018-03-31T04:57:21.814Z,6.6
2018-03-31T04:58:22.614Z,6.7
2018-03-31T04:59:23.341Z,6.6
2018-03-31T05:00:24.090Z,6.7
2018-03-31T05:01:24.818Z,6.8
2018-03-31T05:02:25.537Z,6.8
2018-03-31T05:03:26.328Z,6.8
2018-03-31T05:04:27.072Z,6.7
2018-03-31T05:05:27.807Z,6.7
2018-03-31T05:06:28.536Z,6.8
2018-03-31T05:07:29.252Z,6.8
2018-03-31T05:08:29.994Z,6.7
2018-03-31T05:09:30.722Z,6.7
2018-03-31T05:10:31.468Z,6.7
2018-03-31T05:11:32.201Z,6.8
2018-03-31T05:12:32.918Z,6.7
2018-03-31T05:13:33.693Z,6.8
2018-03-31T05:14:34.490Z,6.8
2018-03-31T05:15:35.222Z,6.8
2018-03-31T05:16:35.999Z,6.8
2018-03-31T05:17:36.731Z,6.8
2018-03-31T05:18:37.477Z,6.8
2018-03-31T05:19:38.218Z,6.8
2018-03-31T05:20:38.946Z,6.7
2018-03-31T05:21:39.974Z,6.8
2018-03-31T05:22:40.704Z,6.7
2018-03-31T05:23:41.431Z,6.8
2018-03-31T05:24:42.159Z,6.7
2018-03-31T05:25:42.884Z,6.7
2018-03-31T05:26:43.626Z,6.7
2018-03-31T05:27:44.405Z,6.6
2018-03-31T05:28:45.159Z,6.6
2018-03-31T05:29:45.884Z,6.7
2018-03-31T05:30:46.691Z,6.7
2018-03-31T05:31:47.431Z,6.7
2018-03-31T05:32:48.180Z,6.8
2018-03-31T05:33:48.982Z,6.7
2018-03-31T05:34:49.708Z,6.7
2018-03-31T05:35:50.450Z,6.8
2018-03-31T05:36:51.185Z,6.8
2018-03-31T05:37:51.926Z,6.8
2018-03-31T05:38:52.713Z,6.7
2018-03-31T05:39:53.436Z,6.7
2018-03-31T05:40:54.178Z,6.7
2018-03-31T05:41:54.900Z,6.7
2018-03-31T05:42:55.632Z,6.8
2018-03-31T05:43:56.373Z,6.8
2018-03-31T05:44:57.113Z,6.7
2018-03-31T05:45:57.831Z,6.7
2018-03-31T05:46:58.556Z,6.6
2018-03-31T05:47:59.302Z,6.6
2018-03-31T05:49:00.039Z,6.6
2018-03-31T05:50:00.797Z,6.6
2018-03-31T05:51:01.520Z,6.6
2018-03-31T05:52:02.351Z,6.6
2018-03-31T05:53:03.540Z,6.6
2018-03-31T05:54:04.296Z,6.7
2018-03-31T05:55:05.017Z,6.7
2018-03-31T05:56:05.745Z,6.6
2018-03-31T05:57:06.541Z,6.7
2018-03-31T05:58:07.283Z,6.7
2018-03-31T05:59:08.017Z,6.6
2018-03-31T06:00:09.201Z,6.6
2018-03-31T06:01:10.000Z,6.7
2018-03-31T06:02:10.800Z,6.7
2018-03-31T06:03:11.525Z,6.6
2018-03-31T06:04:12.262Z,6.7
2018-03-31T06:05:13.043Z,6.7
2018-03-31T06:06:13.771Z,6.7
2018-03-31T06:07:14.517Z,6.7
2018-03-31T06:08:15.196Z,6.8
2018-03-31T06:09:16.050Z,6.7
2018-03-31T06:10:16.777Z,6.8
2018-03-31T06:11:17.506Z,6.8
2018-03-31T06:12:18.234Z,6.8
2018-03-31T06:13:19.044Z,6.7
2018-03-31T06:14:19.893Z,6.8
2018-03-31T06:15:20.612Z,6.8
2018-03-31T06:16:21.372Z,6.8
2018-03-31T06:17:22.177Z,6.7
2018-03-31T06:18:22.952Z,6.8
2018-03-31T06:19:23.742Z,6.8
2018-03-31T06:20:24.490Z,6.8
2018-03-31T06:21:25.202Z,6.8
2018-03-31T06:22:25.936Z,6.8
2018-03-31T06:23:26.752Z,6.9
2018-03-31T06:24:27.572Z,6.8
2018-03-31T06:25:28.370Z,6.8
2018-03-31T06:26:29.108Z,6.8
2018-03-31T06:27:29.836Z,6.8
2018-03-31T06:28:30.582Z,6.8
2018-03-31T06:29:31.396Z,6.8
2018-03-31T06:30:32.100Z,6.8
2018-03-31T06:31:32.901Z,6.9
2018-03-31T06:32:33.674Z,6.8
2018-03-31T06:33:34.397Z,6.8
2018-03-31T06:34:35.126Z,6.9
2018-03-31T06:35:35.909Z,7.0
2018-03-31T06:36:36.683Z,6.9
2018-03-31T06:37:37.402Z,6.9
2018-03-31T06:38:38.138Z,7.0
2018-03-31T06:39:38.878Z,7.0
2018-03-31T06:40:39.672Z,6.9
2018-03-31T06:41:40.461Z,6.9
2018-03-31T06:42:41.277Z,6.9
2018-03-31T06:43:42.101Z,6.9
2018-03-31T06:44:42.903Z,6.9
2018-03-31T06:45:43.651Z,6.9
2018-03-31T06:46:44.491Z,6.9
2018-03-31T06:47:45.282Z,6.8
2018-03-31T06:48:46.348Z,6.9
2018-03-31T06:49:47.096Z,6.9
2018-03-31T06:50:47.846Z,6.9
2018-03-31T06:51:48.634Z,6.9
2018-03-31T06:52:49.413Z,6.9
2018-03-31T06:53:50.142Z,6.9
2018-03-31T06:54:50.866Z,7.0
2018-03-31T06:55:51.591Z,7.0
2018-03-31T06:56:52.339Z,6.9
2018-03-31T06:57:53.147Z,7.0
2018-03-31T06:58:53.887Z,7.0
2018-03-31T06:59:54.696Z,7.0
2018-03-31T07:00:55.430Z,7.0
2018-03-31T07:01:56.159Z,7.0
2018-03-31T07:02:56.938Z,7.0
2018-03-31T07:03:57.699Z,7.1
2018-03-31T07:04:58.487Z,7.0
2018-03-31T07:05:59.302Z,6.9
2018-03-31T07:07:00.140Z,7.0
2018-03-31T07:08:00.950Z,7.0
2018-03-31T07:09:01.671Z,7.1
2018-03-31T07:10:02.396Z,7.1
2018-03-31T07:11:03.217Z,7.1
2018-03-31T07:12:03.943Z,7.0
2018-03-31T07:13:04.675Z,7.0
2018-03-31T07:14:05.467Z,7.0
2018-03-31T07:15:06.219Z,6.9
2018-03-31T07:16:06.947Z,7.0
2018-03-31T07:17:07.753Z,7.1
2018-03-31T07:18:08.472Z,7.1
2018-03-31T07:19:09.211Z,7.0
2018-03-31T07:20:09.932Z,7.1
2018-03-31T07:21:10.658Z,7.0
2018-03-31T07:22:11.441Z,7.1
2018-03-31T07:23:12.178Z,7.1
2018-03-31T07:24:12.923Z,7.3
2018-03-31T07:25:13.720Z,7.2
2018-03-31T07:26:14.451Z,7.2
2018-03-31T07:27:15.235Z,7.2
2018-03-31T07:28:15.980Z,7.3
2018-03-31T07:29:16.812Z,7.3
2018-03-31T07:30:17.571Z,7.2
2018-03-31T07:31:18.304Z,7.4
2018-03-31T07:32:19.406Z,7.3
2018-03-31T07:33:20.190Z,7.4
2018-03-31T07:34:21.013Z,7.4
2018-03-31T07:35:21.817Z,7.4
2018-03-31T07:36:22.621Z,7.4
2018-03-31T07:37:23.353Z,7.4
2018-03-31T07:38:24.093Z,7.6
2018-03-31T07:39:24.831Z,7.6
2018-03-31T07:40:25.590Z,7.5
2018-03-31T07:41:26.325Z,7.7
2018-03-31T07:42:27.055Z,7.7
2018-03-31T07:43:27.865Z,7.6
2018-03-31T07:44:28.597Z,7.7
2018-03-31T07:45:29.349Z,7.7
2018-03-31T07:46:30.092Z,7.6
2018-03-31T07:47:30.831Z,7.7
2018-03-31T07:48:31.569Z,7.6
2018-03-31T07:49:32.367Z,7.7
2018-03-31T07:50:33.097Z,7.6
2018-03-31T07:51:33.838Z,7.5
2018-03-31T07:52:34.866Z,7.4
2018-03-31T07:53:35.603Z,7.4
2018-03-31T07:54:36.417Z,7.5
2018-03-31T07:55:37.222Z,7.4
2018-03-31T07:56:37.953Z,7.4
2018-03-31T07:57:38.749Z,7.4
2018-03-31T07:58:39.470Z,7.5
2018-03-31T07:59:40.202Z,7.5
2018-03-31T08:00:41.010Z,7.6
2018-03-31T08:01:41.743Z,7.7
2018-03-31T08:02:42.479Z,7.7
2018-03-31T08:03:43.210Z,7.8
2018-03-31T08:04:43.945Z,7.8
2018-03-31T08:05:44.663Z,7.9
2018-03-31T08:06:45.486Z,7.9
2018-03-31T08:07:46.207Z,8.0
2018-03-31T08:08:46.938Z,8.0
2018-03-31T08:09:47.750Z,8.0
2018-03-31T08:10:48.524Z,8.0
2018-03-31T08:11:49.267Z,8.1
2018-03-31T08:12:50.005Z,8.1
2018-03-31T08:13:50.720Z,8.1
2018-03-31T08:14:51.470Z,8.1
2018-03-31T08:15:52.193Z,8.1
2018-03-31T08:16:52.935Z,8.1
2018-03-31T08:17:53.666Z,8.1
2018-03-31T08:18:54.487Z,8.1
2018-03-31T08:19:55.270Z,8.1
2018-03-31T08:20:56.081Z,8.1
2018-03-31T08:21:56.826Z,8.2
2018-03-31T08:22:57.638Z,8.1
2018-03-31T08:23:58.450Z,8.1
2018-03-31T08:24:59.475Z,8.1
2018-03-31T08:26:00.206Z,8.2
2018-03-31T08:27:00.957Z,8.2
2018-03-31T08:28:01.758Z,8.4
2018-03-31T08:29:02.656Z,8.4
2018-03-31T08:30:03.379Z,8.3
2018-03-31T08:31:04.171Z,8.3
2018-03-31T08:32:04.983Z,8.4
2018-03-31T08:33:05.726Z,8.3
2018-03-31T08:34:06.453Z,8.5
2018-03-31T08:35:07.180Z,8.4
2018-03-31T08:36:07.926Z,8.6
2018-03-31T08:37:08.664Z,8.6
2018-03-31T08:38:09.999Z,8.6
2018-03-31T08:39:10.692Z,8.7
2018-03-31T08:40:11.530Z,8.6
2018-03-31T08:41:12.545Z,8.8
2018-03-31T08:42:14.419Z,8.9
2018-03-31T08:43:15.090Z,8.9
2018-03-31T08:44:15.836Z,9.0
2018-03-31T08:45:16.564Z,9.0
2018-03-31T08:46:17.340Z,9.1
2018-03-31T08:47:18.189Z,9.1
2018-03-31T08:48:18.905Z,9.0
2018-03-31T08:49:19.631Z,9.1
2018-03-31T08:50:20.390Z,9.2
2018-03-31T08:51:21.168Z,9.4
2018-03-31T08:52:21.995Z,9.4
2018-03-31T08:53:22.799Z,9.5
2018-03-31T08:54:23.588Z,9.5
2018-03-31T08:55:24.292Z,9.7
2018-03-31T08:56:25.100Z,9.7
2018-03-31T08:57:25.833Z,9.8
2018-03-31T08:58:26.574Z,9.7
2018-03-31T08:59:27.560Z,9.9
2018-03-31T09:00:28.477Z,9.9
2018-03-31T09:01:29.207Z,9.9
2018-03-31T09:02:29.943Z,10.0
2018-03-31T09:03:30.671Z,10.1
2018-03-31T09:04:31.417Z,10.1
2018-03-31T09:05:32.211Z,10.3
2018-03-31T09:06:32.978Z,10.3
2018-03-31T09:07:33.715Z,10.2
2018-03-31T09:08:34.506Z,10.3
2018-03-31T09:09:35.246Z,10.4
2018-03-31T09:10:36.077Z,10.5
2018-03-31T09:11:36.770Z,10.3
2018-03-31T09:12:37.515Z,10.3
2018-03-31T09:13:38.243Z,10.4
2018-03-31T09:14:39.067Z,10.5
2018-03-31T09:15:39.846Z,10.5
2018-03-31T09:16:40.651Z,10.5
2018-03-31T09:17:41.361Z,10.5
2018-03-31T09:18:42.098Z,10.6
2018-03-31T09:19:42.922Z,10.6
2018-03-31T09:20:43.747Z,10.6
2018-03-31T09:21:44.530Z,10.7
2018-03-31T09:22:45.783Z,10.7
2018-03-31T09:23:46.206Z,10.6
2018-03-31T09:24:47.012Z,10.5
2018-03-31T09:25:48.505Z,10.4
2018-03-31T09:26:49.268Z,10.2
2018-03-31T09:27:50.021Z,10.2
2018-03-31T09:28:50.813Z,10.2
2018-03-31T09:29:51.558Z,10.2
2018-03-31T09:30:52.324Z,10.2
2018-03-31T09:31:53.379Z,10.3
2018-03-31T09:32:54.173Z,10.2
2018-03-31T09:33:54.897Z,10.2
2018-03-31T09:34:55.633Z,10.1
2018-03-31T09:35:56.367Z,10.1
2018-03-31T09:36:57.092Z,10.2
2018-03-31T09:37:57.826Z,10.2
2018-03-31T09:38:58.565Z,10.2
2018-03-31T09:39:59.393Z,10.3
2018-03-31T09:41:00.113Z,10.3
2018-03-31T09:42:00.864Z,10.4
2018-03-31T09:43:01.603Z,10.4
2018-03-31T09:44:02.349Z,10.5
2018-03-31T09:45:03.154Z,10.6
2018-03-31T09:46:03.941Z,10.5
2018-03-31T09:47:04.744Z,10.5
2018-03-31T09:48:05.495Z,10.4
2018-03-31T09:49:06.218Z,10.3
2018-03-31T09:50:06.964Z,10.4
2018-03-31T09:51:07.704Z,10.5
2018-03-31T09:52:08.444Z,10.6
2018-03-31T09:53:09.174Z,10.5
2018-03-31T09:54:09.918Z,10.6
2018-03-31T09:55:10.964Z,10.6
2018-03-31T09:56:11.708Z,10.8
2018-03-31T09:57:12.512Z,10.9
2018-03-31T09:58:13.329Z,10.8
2018-03-31T09:59:14.124Z,10.7
2018-03-31T10:00:14.866Z,10.7
2018-03-31T10:01:15.618Z,11.0
2018-03-31T10:02:16.402Z,11.0
2018-03-31T10:03:17.145Z,10.9
2018-03-31T10:04:17.932Z,11.0
2018-03-31T10:05:18.680Z,10.9
2018-03-31T10:06:19.427Z,10.9
2018-03-31T10:07:20.182Z,10.7
2018-03-31T10:08:20.889Z,10.5
2018-03-31T10:09:21.642Z,10.5
2018-03-31T10:10:22.444Z,10.5
2018-03-31T10:11:23.259Z,10.4
2018-03-31T10:12:24.008Z,10.6
2018-03-31T10:13:24.748Z,10.6
2018-03-31T10:14:25.509Z,10.7
2018-03-31T10:15:26.221Z,10.8
2018-03-31T10:16:26.953Z,10.7
2018-03-31T10:17:27.707Z,10.9
2018-03-31T10:18:28.506Z,11.0
2018-03-31T10:19:29.252Z,11.0
2018-03-31T10:20:29.991Z,11.0
2018-03-31T10:21:30.733Z,11.0
2018-03-31T10:22:31.483Z,11.1
2018-03-31T10:23:32.222Z,11.1
2018-03-31T10:24:32.951Z,11.0
2018-03-31T10:25:33.687Z,11.2
2018-03-31T10:26:34.432Z,11.3
2018-03-31T10:27:35.157Z,11.4
2018-03-31T10:28:35.921Z,11.4
2018-03-31T10:29:36.644Z,11.4
2018-03-31T10:30:37.370Z,11.5
2018-03-31T10:31:38.123Z,11.5
2018-03-31T10:32:38.850Z,11.4
2018-03-31T10:33:39.592Z,11.4
2018-03-31T10:34:40.341Z,11.5
2018-03-31T10:35:41.141Z,11.5
2018-03-31T10:36:41.882Z,11.2
2018-03-31T10:37:42.966Z,11.0
2018-03-31T10:38:43.704Z,10.9
2018-03-31T10:39:44.450Z,11.0
2018-03-31T10:40:45.272Z,10.9
2018-03-31T10:41:46.009Z,11.1
2018-03-31T10:42:46.784Z,11.1
2018-03-31T10:43:47.585Z,11.0
2018-03-31T10:44:48.413Z,11.1
2018-03-31T10:45:49.152Z,11.1
2018-03-31T10:46:49.922Z,11.0
2018-03-31T10:47:50.650Z,11.0
2018-03-31T10:48:51.444Z,10.9
2018-03-31T10:49:52.195Z,10.9
2018-03-31T10:50:52.988Z,11.1
2018-03-31T10:51:53.727Z,11.3
2018-03-31T10:52:54.479Z,11.7
2018-03-31T10:53:55.567Z,11.5
2018-03-31T10:54:56.311Z,11.4
2018-03-31T10:55:57.078Z,11.6
2018-03-31T10:56:57.794Z,11.4
2018-03-31T10:57:58.600Z,11.5
2018-03-31T10:58:59.644Z,11.3
2018-03-31T11:00:00.375Z,11.5
2018-03-31T11:01:01.116Z,11.6
2018-03-31T11:02:01.881Z,11.7
2018-03-31T11:03:02.617Z,11.9
2018-03-31T11:04:03.343Z,12.1
2018-03-31T11:05:04.067Z,12.5
2018-03-31T11:06:04.885Z,12.5
2018-03-31T11:07:05.624Z,12.5
2018-03-31T11:08:06.404Z,12.3
2018-03-31T11:09:07.139Z,12.0
2018-03-31T11:10:07.924Z,12.2
2018-03-31T11:11:08.655Z,12.3
2018-03-31T11:12:09.451Z,12.4
2018-03-31T11:13:10.185Z,12.4
2018-03-31T11:14:10.925Z,12.4
2018-03-31T11:15:11.656Z,12.4
2018-03-31T11:16:12.413Z,12.1
2018-03-31T11:17:13.149Z,12.1
2018-03-31T11:18:13.877Z,12.2
2018-03-31T11:19:14.609Z,12.2
2018-03-31T11:20:15.352Z,12.3
2018-03-31T11:21:16.127Z,12.2
2018-03-31T11:22:16.888Z,12.0
2018-03-31T11:23:17.634Z,11.9
2018-03-31T11:24:18.421Z,11.8
2018-03-31T11:25:19.162Z,11.8
2018-03-31T11:26:19.977Z,11.6
2018-03-31T11:27:20.720Z,11.5
2018-03-31T11:28:21.544Z,11.3
2018-03-31T11:29:22.339Z,11.3
2018-03-31T11:30:23.074Z,11.0
2018-03-31T11:31:23.862Z,11.1
2018-03-31T11:32:24.607Z,11.1
2018-03-31T11:33:25.389Z,11.2
2018-03-31T11:34:26.180Z,11.4
2018-03-31T11:35:26.913Z,11.4
2018-03-31T11:36:27.703Z,11.3
2018-03-31T11:37:28.511Z,11.5
2018-03-31T11:38:29.340Z,11.6
2018-03-31T11:39:30.080Z,11.7
2018-03-31T11:40:30.886Z,11.7
2018-03-31T11:41:31.630Z,11.8
2018-03-31T11:42:32.388Z,11.6
2018-03-31T11:43:33.125Z,11.7
2018-03-31T11:44:33.859Z,11.9
2018-03-31T11:45:34.690Z,12.0
2018-03-31T11:46:35.462Z,12.0
2018-03-31T11:47:36.274Z,12.0
2018-03-31T11:48:37.015Z,12.2
2018-03-31T11:49:38.124Z,12.2
2018-03-31T11:50:38.927Z,11.8
2018-03-31T11:51:39.721Z,12.0
2018-03-31T11:52:40.453Z,12.0
2018-03-31T11:53:41.239Z,11.9
2018-03-31T11:54:42.039Z,12.1
2018-03-31T11:55:42.785Z,12.4
2018-03-31T11:56:43.516Z,12.6
2018-03-31T11:57:44.330Z,12.7
2018-03-31T11:58:45.134Z,12.9
2018-03-31T11:59:45.930Z,12.8
2018-03-31T12:00:46.655Z,12.9
2018-03-31T12:01:47.418Z,13.0
2018-03-31T12:02:48.157Z,12.8
2018-03-31T12:03:48.893Z,12.8
2018-03-31T12:04:50.004Z,12.6
2018-03-31T12:05:50.740Z,12.3
2018-03-31T12:06:51.476Z,11.9
2018-03-31T12:07:52.232Z,12.0
2018-03-31T12:08:52.950Z,12.1
2018-03-31T12:09:53.696Z,12.2
2018-03-31T12:10:54.444Z,12.1
2018-03-31T12:11:55.258Z,12.0
2018-03-31T12:12:56.080Z,11.7
2018-03-31T12:13:56.855Z,11.7
2018-03-31T12:14:57.597Z,11.5
2018-03-31T12:15:58.337Z,11.6
2018-03-31T12:16:59.130Z,11.5
2018-03-31T12:17:59.860Z,11.6
2018-03-31T12:19:00.611Z,11.7
2018-03-31T12:20:01.350Z,11.6
2018-03-31T12:21:02.144Z,11.7
2018-03-31T12:22:02.845Z,11.8
2018-03-31T12:23:03.585Z,12.0
2018-03-31T12:24:04.391Z,12.1
2018-03-31T12:25:05.124Z,12.1
2018-03-31T12:26:05.868Z,12.2
2018-03-31T12:27:06.691Z,12.0
2018-03-31T12:28:07.374Z,11.9
2018-03-31T12:29:08.125Z,11.7
2018-03-31T12:30:08.934Z,11.7
2018-03-31T12:31:09.661Z,11.8
2018-03-31T12:32:10.392Z,12.0
2018-03-31T12:33:11.139Z,11.9
2018-03-31T12:34:11.877Z,11.8
2018-03-31T12:35:12.612Z,12.0
2018-03-31T12:36:13.420Z,12.0
2018-03-31T12:37:14.231Z,12.1
2018-03-31T12:38:14.978Z,12.2
2018-03-31T12:39:15.810Z,12.1
2018-03-31T12:40:16.597Z,12.1
2018-03-31T12:41:17.348Z,12.3
2018-03-31T12:42:18.091Z,12.4
2018-03-31T12:43:18.900Z,12.3
2018-03-31T12:44:19.728Z,12.4
2018-03-31T12:45:20.460Z,12.1
2018-03-31T12:46:21.208Z,12.1
2018-03-31T12:47:22.031Z,12.1
2018-03-31T12:48:22.774Z,11.9
2018-03-31T12:49:23.511Z,12.2
2018-03-31T12:50:24.244Z,12.4
2018-03-31T12:51:24.986Z,12.3
2018-03-31T12:52:25.808Z,12.1
2018-03-31T12:53:26.548Z,12.1
2018-03-31T12:54:27.290Z,12.2
2018-03-31T12:55:28.098Z,12.3
2018-03-31T12:56:28.894Z,12.4
2018-03-31T12:57:29.758Z,12.7
2018-03-31T12:58:30.482Z,12.6
2018-03-31T12:59:31.313Z,12.6
2018-03-31T13:00:32.063Z,12.7
2018-03-31T13:01:32.771Z,12.7
2018-03-31T13:02:33.613Z,12.6
2018-03-31T13:03:34.357Z,12.7
2018-03-31T13:04:35.170Z,12.8
2018-03-31T13:05:35.981Z,12.7
2018-03-31T13:06:36.788Z,12.8
2018-03-31T13:07:37.543Z,12.9
2018-03-31T13:08:38.262Z,13.1
2018-03-31T13:09:39.066Z,13.2
2018-03-31T13:10:39.793Z,13.4
2018-03-31T13:11:40.627Z,13.4
2018-03-31T13:12:41.369Z,13.4
2018-03-31T13:13:42.778Z,13.5
2018-03-31T13:14:43.584Z,13.6
2018-03-31T13:15:44.323Z,13.5
2018-03-31T13:16:45.054Z,13.6
2018-03-31T13:17:45.812Z,13.6
2018-03-31T13:18:46.604Z,13.6
2018-03-31T13:19:47.722Z,13.2
2018-03-31T13:20:48.456Z,13.0
2018-03-31T13:21:49.274Z,13.2
2018-03-31T13:22:50.114Z,13.5
2018-03-31T13:23:50.800Z,13.6
2018-03-31T13:24:51.543Z,13.5
2018-03-31T13:25:52.275Z,13.4
2018-03-31T13:26:53.086Z,13.1
2018-03-31T13:27:53.839Z,13.4
2018-03-31T13:28:54.600Z,13.1
2018-03-31T13:29:55.384Z,13.0
2018-03-31T13:30:56.142Z,12.8
2018-03-31T13:31:56.969Z,12.8
2018-03-31T13:32:57.720Z,12.8
2018-03-31T13:33:58.691Z,12.6
2018-03-31T13:34:59.541Z,12.2
2018-03-31T13:36:00.269Z,12.3
2018-03-31T13:37:01.108Z,12.3
2018-03-31T13:38:01.973Z,12.3
2018-03-31T13:39:02.781Z,12.5
2018-03-31T13:40:03.548Z,12.5
2018-03-31T13:41:04.337Z,12.5
2018-03-31T13:42:05.238Z,12.5
2018-03-31T13:43:06.323Z,12.4
2018-03-31T13:44:07.062Z,12.3
2018-03-31T13:45:07.822Z,12.4
2018-03-31T13:46:08.638Z,12.5
2018-03-31T13:47:09.469Z,12.6